Time;durP1;ratioP1;P1;durP2;ratioP2;P2;SDS_P1;SDS_P2;PMS_P1;PMS_P2;Temp;Humidity;BMP_temperature;BMP_pressure;BME280_temperature;BME280_humidity;BME280_pressure;Samples;Min_cycle;Max_cycle;Signal;HPM_P1;HPM_P2
2022/08/07 00:01:43;;;;;;;5.93;2.90;;;17.80;90.20;;;;;;5071256;28;20033;-70
2022/08/07 00:04:08;;;;;;;5.80;3.00;;;17.80;90.20;;;;;;5071087;28;20378;-70
2022/08/07 00:06:34;;;;;;;5.78;2.80;;;17.80;90.60;;;;;;5070229;28;20374;-71
2022/08/07 00:09:02;;;;;;;6.35;3.42;;;17.70;90.30;;;;;;5070841;28;20028;-70
2022/08/07 00:11:28;;;;;;;5.83;2.97;;;17.70;90.40;;;;;;5071102;28;20031;-72
2022/08/07 00:13:54;;;;;;;9.45;3.30;;;17.70;90.50;;;;;;5071151;28;20041;-72
2022/08/07 00:16:23;;;;;;;6.00;3.38;;;17.70;90.60;;;;;;5070733;28;20029;-71
2022/08/07 00:18:49;;;;;;;7.63;3.30;;;17.70;90.60;;;;;;5052864;28;20086;-72
2022/08/07 00:21:15;;;;;;;5.95;3.60;;;17.60;90.70;;;;;;5071097;28;20025;-71
2022/08/07 00:23:41;;;;;;;7.03;3.17;;;17.70;90.70;;;;;;5070776;28;20024;-71
2022/08/07 00:26:10;;;;;;;5.85;3.45;;;17.60;90.70;;;;;;5071102;28;20029;-71
2022/08/07 00:28:36;;;;;;;9.43;3.13;;;17.60;90.80;;;;;;5070873;28;20382;-71
2022/08/07 00:31:06;;;;;;;5.95;2.90;;;17.60;90.90;;;;;;5070802;28;20363;-71
2022/08/07 00:33:34;;;;;;;6.32;2.92;;;17.60;90.90;;;;;;5052889;28;20024;-71
2022/08/07 00:36:00;;;;;;;7.78;3.30;;;17.50;91.30;;;;;;5052906;28;20489;-71
2022/08/07 00:38:26;;;;;;;6.10;3.00;;;17.50;91.10;;;;;;5067830;22;20068;-72
2022/08/07 00:40:52;;;;;;;8.73;3.47;;;17.50;91.20;;;;;;5052417;28;20485;-72
2022/08/07 00:43:18;;;;;;;5.20;3.10;;;17.40;91.20;;;;;;5070422;28;20025;-72
2022/08/07 00:45:44;;;;;;;5.72;3.30;;;17.40;91.60;;;;;;5052446;28;20024;-71
2022/08/07 00:48:10;;;;;;;6.38;3.00;;;17.40;91.50;;;;;;5052739;28;20529;-72
2022/08/07 00:50:38;;;;;;;6.15;3.20;;;17.30;91.60;;;;;;5052148;28;20024;-72
2022/08/07 00:53:04;;;;;;;6.15;3.70;;;17.30;91.60;;;;;;5070838;28;20048;-72
2022/08/07 00:55:30;;;;;;;6.25;2.95;;;17.30;91.60;;;;;;5070603;28;20067;-72
2022/08/07 00:57:57;;;;;;;4.65;2.92;;;17.30;91.70;;;;;;5052274;28;20035;-72
2022/08/07 01:00:23;;;;;;;8.65;3.25;;;17.30;91.70;;;;;;5052310;28;20112;-72
2022/08/07 01:02:49;;;;;;;6.45;3.17;;;17.30;91.80;;;;;;5070414;28;20028;-72
2022/08/07 01:05:16;;;;;;;8.85;3.53;;;17.30;91.80;;;;;;5070319;28;20108;-72
2022/08/07 01:07:42;;;;;;;5.40;3.08;;;17.20;91.80;;;;;;5070594;28;20112;-72
2022/08/07 01:10:09;;;;;;;7.03;3.65;;;17.20;91.90;;;;;;5052313;28;20043;-72
2022/08/07 01:12:36;;;;;;;5.50;2.90;;;17.10;91.90;;;;;;5070262;28;20134;-72
2022/08/07 01:15:04;;;;;;;9.32;5.18;;;17.20;92.00;;;;;;5052247;28;20040;-72
2022/08/07 01:17:31;;;;;;;5.50;3.33;;;17.20;92.00;;;;;;5052031;28;20032;-72
2022/08/07 01:20:03;;;;;;;6.03;3.55;;;17.20;92.00;;;;;;5055526;28;20393;-72
2022/08/07 01:22:30;;;;;;;10.52;3.50;;;17.20;92.00;;;;;;5056098;28;20448;-71
2022/08/07 01:24:58;;;;;;;4.78;2.80;;;17.10;92.00;;;;;;5073750;28;20032;-72
2022/08/07 01:27:24;;;;;;;5.00;2.92;;;17.20;92.00;;;;;;5055762;28;20032;-71
2022/08/07 01:29:51;;;;;;;6.10;3.17;;;17.10;92.00;;;;;;5055466;28;20051;-72
2022/08/07 01:32:19;;;;;;;6.88;3.30;;;17.10;92.00;;;;;;5073746;28;20086;-72
2022/08/07 01:34:47;;;;;;;8.70;3.70;;;17.20;91.80;;;;;;5055680;28;20316;-72
2022/08/07 01:37:16;;;;;;;5.68;3.38;;;17.20;91.80;;;;;;5055364;28;20060;-72
2022/08/07 01:39:44;;;;;;;4.97;2.58;;;17.20;91.80;;;;;;5055394;28;20381;-72
2022/08/07 01:42:17;;;;;;;5.32;3.05;;;17.20;91.70;;;;;;5055760;28;20021;-72
2022/08/07 01:44:44;;;;;;;5.80;2.65;;;17.20;91.70;;;;;;5055310;28;20591;-72
2022/08/07 01:47:10;;;;;;;5.82;2.72;;;17.20;91.60;;;;;;5055238;28;20113;-72
2022/08/07 01:49:37;;;;;;;3.70;2.30;;;17.20;91.50;;;;;;5055356;28;20028;-72
2022/08/07 01:52:06;;;;;;;6.22;2.42;;;17.20;91.40;;;;;;5038724;28;20374;-72
2022/08/07 01:54:34;;;;;;;;;;;17.20;91.40;;;;;;5055628;28;20059;-72
2022/08/07 01:57:12;;;;;;;4.75;2.88;;;17.10;91.40;;;;;;5055074;28;20339;-72
2022/08/07 01:59:49;;;;;;;4.63;2.78;;;17.10;91.40;;;;;;5072875;28;20024;-72
2022/08/07 02:02:20;;;;;;;7.18;3.05;;;17.10;91.50;;;;;;5055135;28;20024;-72
2022/08/07 02:04:52;;;;;;;4.78;2.42;;;17.10;91.40;;;;;;5073003;28;20025;-72
2022/08/07 02:07:22;;;;;;;5.45;2.30;;;17.20;91.40;;;;;;5054904;28;20028;-72
2022/08/07 02:09:54;;;;;;;5.20;2.58;;;17.20;91.40;;;;;;5054599;28;20493;-72
2022/08/07 02:12:23;;;;;;;7.55;2.60;;;17.10;91.40;;;;;;5054945;28;20040;-72
2022/08/07 02:14:54;;;;;;;4.90;2.47;;;17.10;91.40;;;;;;5054831;28;20039;-72
2022/08/07 02:17:29;;;;;;;8.05;2.80;;;17.10;91.50;;;;;;5054705;28;20032;-72
2022/08/07 02:19:57;;;;;;;4.65;2.55;;;17.10;91.60;;;;;;5072612;28;20059;-72
2022/08/07 02:22:24;;;;;;;5.70;2.65;;;17.10;91.60;;;;;;5054686;28;20029;-72
2022/08/07 02:24:53;;;;;;;5.00;2.60;;;17.00;91.80;;;;;;5054700;28;20484;-72
2022/08/07 02:27:22;;;;;;;6.07;2.63;;;16.90;91.90;;;;;;5072623;28;20032;-71
2022/08/07 02:29:50;;;;;;;6.57;2.63;;;17.00;91.90;;;;;;5036817;28;20033;-72
2022/08/07 02:32:18;;;;;;;6.35;3.08;;;16.90;92.00;;;;;;5054755;28;20028;-72
2022/08/07 02:34:47;;;;;;;4.77;2.40;;;16.80;92.10;;;;;;5072524;28;20032;-72
2022/08/07 02:37:14;;;;;;;4.97;2.60;;;16.80;92.20;;;;;;5072276;28;20033;-72
2022/08/07 02:39:45;;;;;;;6.85;2.65;;;16.80;92.10;;;;;;5054124;28;20032;-72
2022/08/07 02:42:17;;;;;;;6.75;2.58;;;16.80;92.00;;;;;;5054614;28;20082;-72
2022/08/07 02:44:49;;;;;;;5.93;2.88;;;16.80;92.00;;;;;;5054375;28;20028;-72
2022/08/07 02:47:19;;;;;;;6.22;3.10;;;16.80;92.00;;;;;;5054147;28;20028;-72
2022/08/07 02:49:47;;;;;;;5.88;3.03;;;16.90;92.10;;;;;;5053899;28;20032;-72
2022/08/07 02:52:19;;;;;;;6.80;2.92;;;16.90;92.10;;;;;;5072227;28;20024;-72
2022/08/07 02:54:48;;;;;;;5.07;2.92;;;16.90;92.20;;;;;;5054358;28;20033;-72
2022/08/07 02:57:17;;;;;;;7.88;3.22;;;16.90;92.20;;;;;;5054212;28;20400;-72
2022/08/07 02:59:47;;;;;;;5.43;3.00;;;16.90;92.20;;;;;;5071958;28;20025;-72
2022/08/07 03:02:15;;;;;;;5.22;2.92;;;16.90;92.30;;;;;;5072305;28;20506;-72
2022/08/07 03:04:44;;;;;;;5.40;3.30;;;16.90;92.30;;;;;;5054710;28;20024;-72
2022/08/07 03:07:11;;;;;;;8.00;3.00;;;16.80;92.30;;;;;;5073198;28;20032;-72
2022/08/07 03:09:40;;;;;;;5.85;3.05;;;16.80;92.30;;;;;;5054415;28;20064;-71
2022/08/07 03:12:07;;;;;;;7.00;2.67;;;16.80;92.40;;;;;;5055392;28;20499;-72
2022/08/07 03:14:35;;;;;;;6.70;3.50;;;16.70;92.60;;;;;;5054358;28;20028;-72
2022/08/07 03:17:03;;;;;;;6.53;3.17;;;16.60;92.60;;;;;;5053657;28;20086;-72
2022/08/07 03:19:30;;;;;;;6.80;3.75;;;16.70;92.80;;;;;;5053446;28;20036;-72
2022/08/07 03:21:59;;;;;;;6.30;3.60;;;16.60;92.90;;;;;;5053606;28;20021;-72
2022/08/07 03:24:26;;;;;;;6.35;3.40;;;16.60;92.90;;;;;;5071535;28;20020;-72
2022/08/07 03:26:53;;;;;;;5.80;2.97;;;16.70;92.80;;;;;;5053216;28;20028;-72
2022/08/07 03:29:20;;;;;;;6.28;3.13;;;16.70;92.80;;;;;;5053320;28;20028;-72
2022/08/07 03:31:49;;;;;;;6.03;3.40;;;16.60;92.70;;;;;;5053476;28;20081;-72
2022/08/07 03:34:16;;;;;;;;;;;16.60;92.90;;;;;;5053887;28;20441;-72
2022/08/07 03:36:44;;;;;;;5.80;3.10;;;16.60;92.90;;;;;;5053386;28;20334;-71
2022/08/07 03:39:14;;;;;;;5.72;2.90;;;16.50;93.00;;;;;;5053006;28;20031;-72
2022/08/07 03:41:41;;;;;;;4.60;2.67;;;16.50;93.10;;;;;;5053004;28;20378;-72
2022/08/07 03:44:08;;;;;;;7.55;3.45;;;16.50;93.20;;;;;;5053255;28;20032;-72
2022/08/07 03:46:36;;;;;;;5.43;3.25;;;16.50;93.20;;;;;;5053022;28;20066;-72
2022/08/07 03:49:02;;;;;;;4.38;2.88;;;16.30;93.40;;;;;;5052903;28;20115;-72
2022/08/07 03:51:33;;;;;;;6.32;2.97;;;16.40;93.40;;;;;;5053202;28;20515;-72
2022/08/07 03:54:00;;;;;;;7.18;3.40;;;16.30;93.30;;;;;;5053402;28;20028;-72
2022/08/07 03:56:29;;;;;;;5.82;2.88;;;16.30;93.50;;;;;;5052990;28;20029;-72
2022/08/07 03:58:56;;;;;;;5.22;2.85;;;16.30;93.50;;;;;;5053122;28;20035;-72
2022/08/07 04:01:25;;;;;;;6.07;3.10;;;16.30;93.50;;;;;;5053077;28;20056;-72
2022/08/07 04:03:51;;;;;;;5.25;2.70;;;16.30;93.60;;;;;;5052977;28;20024;-72
2022/08/07 04:06:17;;;;;;;5.68;3.20;;;16.30;93.60;;;;;;5070859;28;20031;-72
2022/08/07 04:08:44;;;;;;;5.25;2.95;;;16.30;93.60;;;;;;5070583;28;20476;-72
2022/08/07 04:11:12;;;;;;;5.13;2.78;;;16.30;93.50;;;;;;5052878;28;20028;-72
2022/08/07 04:13:40;;;;;;;5.88;2.78;;;16.30;93.40;;;;;;5070795;28;20040;-72
2022/08/07 04:16:07;;;;;;;4.47;2.70;;;16.30;93.40;;;;;;5052563;28;20060;-72
2022/08/07 04:18:33;;;;;;;5.72;2.65;;;16.30;93.50;;;;;;5052583;28;20535;-72
2022/08/07 04:21:00;;;;;;;4.25;2.72;;;16.30;93.50;;;;;;5052701;28;20075;-72
2022/08/07 04:23:26;;;;;;;6.30;3.22;;;16.40;93.50;;;;;;5052726;28;20048;-72
2022/08/07 04:25:53;;;;;;;5.40;2.90;;;16.40;93.30;;;;;;5070588;28;20086;-72
2022/08/07 04:28:20;;;;;;;5.15;3.10;;;16.40;93.30;;;;;;5052728;28;20028;-72
2022/08/07 04:30:50;;;;;;;5.93;2.55;;;16.40;93.30;;;;;;5052415;28;20037;-72
2022/08/07 04:33:24;;;;;;;9.80;3.15;;;16.40;93.20;;;;;;5052659;28;20484;-72
2022/08/07 04:35:51;;;;;;;5.57;2.85;;;16.50;93.30;;;;;;5052481;28;20094;-72
2022/08/07 04:38:18;;;;;;;4.68;3.10;;;16.50;93.30;;;;;;5052570;28;20036;-72
2022/08/07 04:40:46;;;;;;;5.75;3.38;;;16.40;93.30;;;;;;5052239;28;20438;-72
2022/08/07 04:43:19;;;;;;;5.30;3.15;;;16.40;93.40;;;;;;5052709;28;20535;-72
2022/08/07 04:45:52;;;;;;;6.43;3.28;;;16.40;93.40;;;;;;5052350;28;20021;-72
2022/08/07 04:48:25;;;;;;;6.78;3.13;;;16.50;93.40;;;;;;5052397;28;20032;-71
2022/08/07 04:51:20;;;;;;;5.30;2.78;;;16.50;93.10;;;;;;5070237;28;20075;-72
2022/08/07 04:53:52;;;;;;;6.38;3.10;;;16.60;93.10;;;;;;5054565;28;20497;-72
2022/08/07 04:56:30;;;;;;;9.27;2.92;;;16.50;93.10;;;;;;5056310;28;20434;-72
2022/08/07 04:59:22;;;;;;;9.15;3.60;;;16.50;93.00;;;;;;5056091;28;20024;-72
2022/08/07 05:02:21;;;;;;;6.43;3.00;;;16.50;93.10;;;;;;5056288;28;20036;-72
2022/08/07 05:04:50;;;;;;;5.38;3.08;;;16.50;93.10;;;;;;5056340;28;20021;-72
2022/08/07 05:07:23;;;;;;;4.78;3.05;;;16.50;93.10;;;;;;5056174;28;20028;-72
2022/08/07 05:09:58;;;;;;;6.53;3.35;;;16.50;93.20;;;;;;5055899;28;20028;-72
2022/08/07 05:12:55;;;;;;;5.82;2.95;;;16.50;93.30;;;;;;5056086;28;20063;-72
2022/08/07 05:15:29;;;;;;;6.03;3.00;;;16.50;93.40;;;;;;5055859;28;20032;-72
2022/08/07 05:18:08;;;;;;;5.45;2.67;;;16.50;93.50;;;;;;5055754;28;20094;-72
2022/08/07 05:20:40;;;;;;;8.18;2.97;;;16.60;93.40;;;;;;5055616;28;20123;-72
2022/08/07 05:23:18;;;;;;;3.78;2.70;;;16.60;93.30;;;;;;5056043;28;20031;-72
2022/08/07 05:25:49;;;;;;;5.10;2.53;;;16.70;93.10;;;;;;5055657;28;20036;-72
2022/08/07 05:28:16;;;;;;;4.53;2.63;;;16.70;93.00;;;;;;5055902;28;20060;-72
2022/08/07 05:30:44;;;;;;;4.88;2.60;;;16.70;93.00;;;;;;5055369;28;20024;-72
2022/08/07 05:33:13;;;;;;;4.68;2.63;;;16.70;93.00;;;;;;5055696;28;20029;-72
2022/08/07 05:35:41;;;;;;;5.97;2.80;;;16.80;93.10;;;;;;5055590;28;20098;-72
2022/08/07 05:38:09;;;;;;;6.35;2.65;;;16.80;93.00;;;;;;5055174;28;20075;-72
2022/08/07 05:40:37;;;;;;;4.88;2.50;;;16.90;92.90;;;;;;5055281;28;20435;-72
2022/08/07 05:43:05;;;;;;;5.25;2.70;;;16.90;92.80;;;;;;5055560;28;20481;-72
2022/08/07 05:45:32;;;;;;;5.80;2.72;;;17.00;92.80;;;;;;5073679;28;20436;-72
2022/08/07 05:48:03;;;;;;;5.53;3.03;;;17.00;92.70;;;;;;5055413;28;20100;-72
2022/08/07 05:50:43;;;;;;;7.30;3.00;;;17.10;92.70;;;;;;5054966;28;20033;-72
2022/08/07 05:53:12;;;;;;;4.05;2.65;;;17.10;92.50;;;;;;5055316;28;20028;-72
2022/08/07 05:55:38;;;;;;;3.92;2.38;;;17.10;92.50;;;;;;5055163;28;20028;-72
2022/08/07 05:58:05;;;;;;;4.18;2.58;;;17.10;92.40;;;;;;5055061;28;20485;-72
2022/08/07 06:00:35;;;;;;;3.90;2.20;;;17.20;92.40;;;;;;5072786;28;20099;-72
2022/08/07 06:03:08;;;;;;;4.70;2.65;;;17.20;92.20;;;;;;5055054;28;20481;-72
2022/08/07 06:05:34;;;;;;;4.20;2.60;;;17.30;92.00;;;;;;5055013;28;20032;-72
2022/08/07 06:08:05;;;;;;;4.38;2.53;;;17.30;91.90;;;;;;5073033;28;20033;-72
2022/08/07 06:10:32;;;;;;;3.80;2.50;;;17.30;92.00;;;;;;5054681;28;20036;-72
2022/08/07 06:13:01;;;;;;;4.00;2.40;;;17.40;92.10;;;;;;5073328;28;20029;-71
2022/08/07 06:15:28;;;;;;;3.53;2.15;;;17.40;92.00;;;;;;5055002;28;20024;-72
2022/08/07 06:17:55;;;;;;;7.25;2.72;;;17.50;91.90;;;;;;5054651;28;20053;-72
2022/08/07 06:20:23;;;;;;;5.82;2.30;;;17.50;91.70;;;;;;5054630;28;20129;-72
2022/08/07 06:22:51;;;;;;;4.95;2.10;;;17.50;91.70;;;;;;5054763;28;20028;-72
2022/08/07 06:25:27;;;;;;;3.33;1.85;;;17.50;91.80;;;;;;5054733;28;20493;-72
2022/08/07 06:28:05;;;;;;;4.07;2.00;;;17.60;91.80;;;;;;5054645;28;20063;-72
2022/08/07 06:30:33;;;;;;;5.90;2.20;;;17.60;91.60;;;;;;5072371;28;20085;-72
2022/08/07 06:32:59;;;;;;;3.50;2.03;;;17.60;91.60;;;;;;5054633;28;20032;-72
2022/08/07 06:35:26;;;;;;;4.28;1.88;;;17.70;91.70;;;;;;5054486;28;20056;-72
2022/08/07 06:37:52;;;;;;;3.55;1.80;;;17.70;91.60;;;;;;5054226;28;20039;-72
2022/08/07 06:40:18;;;;;;;4.32;1.77;;;17.70;91.60;;;;;;5054394;28;20115;-72
2022/08/07 06:42:47;;;;;;;6.20;2.42;;;17.80;91.60;;;;;;5054333;28;20085;-72
2022/08/07 06:45:23;;;;;;;2.97;1.60;;;17.90;91.40;;;;;;5054260;28;20036;-71
2022/08/07 06:47:54;;;;;;;4.32;1.58;;;17.90;91.40;;;;;;5054221;28;20090;-71
2022/08/07 06:50:21;;;;;;;5.00;1.88;;;17.90;91.00;;;;;;5054083;28;20024;-71
2022/08/07 06:52:53;;;;;;;2.75;1.55;;;18.00;90.90;;;;;;5054080;28;20033;-71
2022/08/07 06:55:27;;;;;;;4.00;1.60;;;18.00;90.70;;;;;;5054017;28;20040;-71
2022/08/07 06:58:00;;;;;;;5.03;1.80;;;18.10;90.20;;;;;;5071800;28;20082;-71
2022/08/07 07:00:35;;;;;;;3.20;1.48;;;18.10;90.30;;;;;;5053759;28;20078;-71
2022/08/07 07:03:02;;;;;;;3.20;1.55;;;18.10;90.40;;;;;;5054038;28;20058;-71
2022/08/07 07:05:28;;;;;;;2.83;1.48;;;18.20;90.50;;;;;;5071924;28;20032;-72
2022/08/07 07:07:56;;;;;;;3.75;1.90;;;18.20;90.50;;;;;;5053591;28;20074;-71
2022/08/07 07:10:32;;;;;;;5.35;2.00;;;18.30;90.40;;;;;;5071703;28;20027;-71
2022/08/07 07:13:05;;;;;;;3.03;1.63;;;18.30;90.20;;;;;;5053937;28;20024;-71
2022/08/07 07:15:38;;;;;;;4.68;1.90;;;18.30;90.10;;;;;;5071255;28;20104;-71
2022/08/07 07:18:27;;;;;;;4.13;1.70;;;18.40;89.90;;;;;;5071346;28;20474;-72
2022/08/07 07:21:02;;;;;;;3.30;1.90;;;18.40;89.70;;;;;;5071347;28;20473;-71
2022/08/07 07:23:32;;;;;;;3.92;1.60;;;18.50;89.40;;;;;;5071584;28;20029;-71
2022/08/07 07:26:02;;;;;;;3.08;1.60;;;18.50;89.20;;;;;;5071470;28;20415;-72
2022/08/07 07:28:35;;;;;;;3.03;1.58;;;18.50;89.20;;;;;;5071338;28;20039;-71
2022/08/07 07:31:47;;;;;;;3.92;1.50;;;18.60;89.30;;;;;;5071278;28;20554;-71
2022/08/07 07:34:21;;;;;;;2.97;1.50;;;18.60;88.30;;;;;;5009102;28;20046;-71
2022/08/07 07:36:49;;;;;;;3.05;1.45;;;18.60;88.40;;;;;;5061401;28;20131;-71
2022/08/07 07:39:16;;;;;;;3.95;1.30;;;18.70;88.20;;;;;;5071105;28;20032;-72
2022/08/07 07:41:46;;;;;;;2.42;1.10;;;18.70;87.70;;;;;;5071498;28;20059;-71
2022/08/07 07:44:15;;;;;;;6.53;1.88;;;18.80;87.90;;;;;;5036518;28;20021;-71
2022/08/07 07:46:41;;;;;;;2.13;1.38;;;18.80;87.90;;;;;;5071083;28;20031;-71
2022/08/07 07:49:08;;;;;;;3.70;1.88;;;18.80;87.00;;;;;;5053223;28;20033;-71
2022/08/07 07:51:37;;;;;;;4.50;2.10;;;18.90;86.50;;;;;;5053007;28;20048;-71
2022/08/07 07:54:06;;;;;;;3.20;1.85;;;18.90;86.40;;;;;;5071020;28;20570;-71
2022/08/07 07:56:34;;;;;;;2.92;1.52;;;18.90;85.60;;;;;;5070967;28;20180;-71
2022/08/07 07:59:03;;;;;;;3.75;1.60;;;18.90;85.30;;;;;;5070924;28;20020;-72
2022/08/07 08:01:33;;;;;;;1.90;1.10;;;19.00;85.10;;;;;;5071044;28;20082;-72
2022/08/07 08:04:02;;;;;;;1.95;1.08;;;19.00;84.90;;;;;;5070854;28;20484;-72
2022/08/07 08:06:30;;;;;;;2.72;1.08;;;19.10;84.80;;;;;;5070833;28;20036;-71
2022/08/07 08:08:59;;;;;;;1.83;1.05;;;19.10;84.50;;;;;;5070560;28;20121;-71
2022/08/07 08:11:25;;;;;;;2.20;1.10;;;19.10;84.50;;;;;;5070867;28;20024;-71
2022/08/07 08:13:51;;;;;;;2.30;1.30;;;19.10;85.00;;;;;;5052918;28;20079;-71
2022/08/07 08:16:19;;;;;;;2.22;1.10;;;19.20;84.20;;;;;;5070727;28;20087;-71
2022/08/07 08:18:47;;;;;;;2.20;1.10;;;19.20;83.60;;;;;;5070483;28;20062;-72
2022/08/07 08:27:08;;;;;;;5.05;1.50;;;19.30;81.70;;;;;;5070511;28;20050;-72
2022/08/07 08:30:01;;;;;;;2.70;0.95;;;19.30;80.20;;;;;;5073915;28;20028;-71
2022/08/07 08:32:30;;;;;;;3.55;1.60;;;19.40;80.00;;;;;;5056996;28;20078;-72
2022/08/07 08:34:58;;;;;;;4.90;2.72;;;19.40;79.90;;;;;;5074797;28;20025;-71
2022/08/07 08:37:30;;;;;;;3.10;1.30;;;19.50;79.30;;;;;;5056547;28;20036;-71
2022/08/07 08:39:56;;;;;;;2.47;1.10;;;19.60;77.90;;;;;;5074474;28;20507;-71
2022/08/07 08:42:30;;;;;;;1.67;0.95;;;19.60;77.80;;;;;;5074811;28;20024;-72
2022/08/07 08:44:56;;;;;;;1.95;1.02;;;19.70;77.60;;;;;;5074754;28;20459;-71
2022/08/07 08:47:59;;;;;;;4.47;1.13;;;19.70;77.00;;;;;;5074435;28;20103;-71
2022/08/07 08:50:36;;;;;;;2.15;0.88;;;19.70;76.10;;;;;;5074308;28;20063;-71
2022/08/07 08:53:18;;;;;;;2.00;0.70;;;19.70;73.40;;;;;;5056467;28;20032;-71
2022/08/07 08:55:49;;;;;;;1.98;0.70;;;19.80;72.40;;;;;;5074407;28;20035;-71
2022/08/07 08:58:40;;;;;;;1.40;0.70;;;19.90;72.10;;;;;;5056446;28;20044;-71
2022/08/07 09:01:30;;;;;;;1.77;0.85;;;19.90;72.40;;;;;;5056371;28;20036;-71
2022/08/07 09:04:07;;;;;;;1.42;0.73;;;20.00;69.30;;;;;;5074349;28;20021;-72
2022/08/07 09:06:55;;;;;;;1.73;0.73;;;20.00;69.90;;;;;;5074085;28;20401;-71
2022/08/07 09:09:47;;;;;;;2.40;0.77;;;20.00;70.50;;;;;;5055998;28;20400;-71
2022/08/07 09:12:19;;;;;;;2.65;1.40;;;20.10;70.80;;;;;;5074129;28;20103;-71
2022/08/07 09:15:04;;;;;;;3.63;1.40;;;20.10;70.50;;;;;;5073965;28;20060;-71
2022/08/07 09:17:41;;;;;;;2.03;0.80;;;20.20;70.20;;;;;;5055883;28;20485;-72
2022/08/07 09:20:28;;;;;;;1.42;0.80;;;20.20;70.30;;;;;;5074025;28;20017;-72
2022/08/07 09:23:12;;;;;;;1.45;0.80;;;20.20;70.80;;;;;;5074423;28;20046;-72
2022/08/07 09:25:55;;;;;;;1.55;0.77;;;20.20;71.10;;;;;;5073835;28;20082;-71
2022/08/07 09:28:43;;;;;;;1.90;1.00;;;20.20;71.30;;;;;;5073872;28;20036;-71
2022/08/07 09:31:31;;;;;;;2.20;1.02;;;20.20;69.60;;;;;;5073755;28;20589;-71
2022/08/07 09:34:20;;;;;;;1.13;0.70;;;20.30;69.70;;;;;;5073617;28;20029;-72
2022/08/07 09:37:18;;;;;;;2.45;1.00;;;20.40;70.70;;;;;;5073710;28;20029;-72
2022/08/07 09:40:04;;;;;;;3.33;1.55;;;20.40;69.60;;;;;;5072759;28;20039;-72
2022/08/07 09:42:42;;;;;;;2.45;1.35;;;20.40;70.10;;;;;;5073665;28;20519;-71
2022/08/07 09:45:19;;;;;;;0.95;0.77;;;20.40;70.10;;;;;;5073648;28;20074;-72
2022/08/07 09:48:20;;;;;;;1.65;0.80;;;20.40;69.40;;;;;;5073348;28;20111;-72
2022/08/07 09:51:15;;;;;;;2.85;1.08;;;20.50;69.10;;;;;;5058136;28;20082;-71
2022/08/07 09:53:44;;;;;;;2.25;0.52;;;20.60;68.10;;;;;;5055615;28;20064;-71
2022/08/07 09:56:39;;;;;;;2.15;1.05;;;20.70;68.00;;;;;;5073149;28;20036;-71
2022/08/07 09:59:39;;;;;;;1.70;0.80;;;20.70;68.20;;;;;;5069934;28;20067;-71
2022/08/07 10:02:53;;;;;;;2.20;0.80;;;20.80;68.00;;;;;;5049360;28;20079;-71
2022/08/07 10:05:44;;;;;;;1.23;0.70;;;20.80;67.60;;;;;;5067479;28;20032;-71
2022/08/07 10:08:28;;;;;;;1.52;0.60;;;20.90;67.60;;;;;;5073124;28;20489;-71
2022/08/07 10:11:15;;;;;;;0.75;0.50;;;20.90;67.20;;;;;;5072821;28;20039;-71
2022/08/07 10:14:08;;;;;;;2.35;1.00;;;20.90;67.40;;;;;;5072811;28;20034;-71
2022/08/07 10:17:00;;;;;;;2.15;0.60;;;20.90;68.10;;;;;;5061780;28;20390;-71
2022/08/07 10:19:59;;;;;;;1.63;1.00;;;20.80;67.60;;;;;;5041036;28;20044;-71
2022/08/07 10:23:09;;;;;;;1.58;0.80;;;20.80;68.00;;;;;;5038672;28;20029;-72
2022/08/07 10:25:45;;;;;;;2.10;0.70;;;20.80;68.40;;;;;;5057068;28;20041;-71
2022/08/07 10:28:50;;;;;;;1.75;0.90;;;20.70;68.30;;;;;;5072849;28;20133;-71
2022/08/07 10:31:47;;;;;;;1.95;0.90;;;20.60;68.40;;;;;;5072452;28;20060;-72
2022/08/07 10:34:38;;;;;;;2.20;0.75;;;20.60;68.80;;;;;;5072383;28;20036;-72
2022/08/07 10:37:28;;;;;;;2.40;0.80;;;20.60;68.10;;;;;;5072554;28;20029;-72
2022/08/07 10:40:03;;;;;;;1.02;0.50;;;20.60;67.90;;;;;;5071929;28;20040;-72
2022/08/07 10:42:38;;;;;;;2.22;0.88;;;20.70;67.80;;;;;;5072817;28;20237;-72
2022/08/07 10:45:16;;;;;;;2.78;1.52;;;20.70;67.60;;;;;;5054817;28;20094;-72
2022/08/07 10:48:23;;;;;;;2.85;1.50;;;20.80;66.40;;;;;;5072394;28;20102;-71
2022/08/07 10:51:02;;;;;;;2.00;0.90;;;20.90;66.20;;;;;;5071131;28;20033;-72
2022/08/07 10:53:54;;;;;;;2.45;0.93;;;21.00;66.70;;;;;;5072132;28;20564;-71
2022/08/07 10:57:02;;;;;;;2.97;0.90;;;21.10;66.90;;;;;;5071853;28;20067;-71
2022/08/07 11:00:05;;;;;;;1.40;0.80;;;21.10;65.90;;;;;;5063471;28;20032;-72
2022/08/07 11:02:33;;;;;;;3.58;1.00;;;21.10;66.20;;;;;;5071871;28;20362;-71
2022/08/07 11:05:18;;;;;;;;;;;21.10;66.70;;;;;;5072422;28;20029;-71
2022/08/07 11:08:04;;;;;;;1.55;0.90;;;21.10;67.20;;;;;;5071803;28;19908;-72
2022/08/07 11:10:38;;;;;;;1.85;0.70;;;21.10;67.60;;;;;;5071653;28;20469;-72
2022/08/07 11:13:18;;;;;;;4.63;2.05;;;21.10;66.90;;;;;;5071794;28;20075;-72
2022/08/07 11:15:47;;;;;;;2.17;0.98;;;21.20;66.50;;;;;;5053881;28;20024;-71
2022/08/07 11:18:42;;;;;;;4.60;2.33;;;21.30;65.50;;;;;;5053615;28;20111;-71
2022/08/07 11:21:36;;;;;;;4.03;1.98;;;21.40;64.30;;;;;;5000248;28;20040;-72
2022/08/07 11:24:21;;;;;;;3.72;1.23;;;21.40;65.00;;;;;;5071373;28;20029;-72
2022/08/07 11:27:02;;;;;;;3.22;0.80;;;21.50;65.60;;;;;;5053634;28;20024;-71
2022/08/07 11:29:38;;;;;;;1.33;0.55;;;21.60;65.40;;;;;;5071278;28;20031;-71
2022/08/07 11:32:11;;;;;;;1.67;0.80;;;21.60;65.70;;;;;;5071418;28;20562;-71
2022/08/07 11:35:07;;;;;;;2.90;1.08;;;21.60;65.60;;;;;;5071375;28;20035;-72
2022/08/07 11:37:54;;;;;;;2.85;1.20;;;21.50;65.70;;;;;;5060764;28;20041;-71
2022/08/07 11:40:24;;;;;;;2.10;1.07;;;21.50;65.70;;;;;;5070975;28;20107;-71
2022/08/07 11:43:03;;;;;;;2.28;1.13;;;21.50;66.10;;;;;;5071149;28;20286;-72
2022/08/07 11:45:54;;;;;;;3.22;1.00;;;21.50;66.50;;;;;;5071237;28;20035;-71
2022/08/07 11:48:36;;;;;;;3.45;1.45;;;21.50;66.20;;;;;;5071265;28;20497;-72
2022/08/07 11:51:23;;;;;;;2.67;1.00;;;21.50;66.20;;;;;;5071171;28;20499;-72
2022/08/07 11:54:26;;;;;;;3.28;1.00;;;21.50;65.80;;;;;;5071150;28;20032;-71
2022/08/07 11:57:20;;;;;;;1.75;0.60;;;21.70;65.20;;;;;;5060107;28;20040;-72
2022/08/07 11:59:58;;;;;;;3.50;1.20;;;21.70;65.70;;;;;;5047008;28;20036;-71
2022/08/07 12:02:32;;;;;;;1.75;0.90;;;21.70;65.50;;;;;;5070953;28;20143;-71
2022/08/07 12:05:12;;;;;;;1.25;0.70;;;21.70;65.70;;;;;;5071049;28;20023;-72
2022/08/07 12:07:55;;;;;;;1.77;0.90;;;21.70;65.40;;;;;;5070944;28;20106;-71
2022/08/07 12:10:37;;;;;;;1.45;0.63;;;21.70;65.20;;;;;;5070618;28;20032;-72
2022/08/07 12:13:22;;;;;;;1.60;0.90;;;21.70;65.20;;;;;;5071168;28;20029;-72
2022/08/07 12:15:52;;;;;;;1.65;1.10;;;21.70;65.70;;;;;;5071056;28;20032;-71
2022/08/07 12:18:44;;;;;;;2.35;0.90;;;21.70;67.40;;;;;;5070885;28;20032;-72
2022/08/07 12:21:25;;;;;;;1.63;0.93;;;21.60;66.40;;;;;;5052685;28;20139;-71
2022/08/07 12:24:31;;;;;;;2.15;0.82;;;21.60;66.80;;;;;;5071640;28;20032;-71
2022/08/07 12:27:07;;;;;;;2.47;1.10;;;21.70;65.60;;;;;;5062991;28;20032;-72
2022/08/07 12:29:44;;;;;;;1.70;0.60;;;21.70;66.00;;;;;;5071596;28;20396;-71
2022/08/07 12:32:24;;;;;;;2.72;0.82;;;21.80;65.10;;;;;;5070910;28;20046;-72
2022/08/07 12:34:51;;;;;;;2.47;0.85;;;21.80;65.40;;;;;;5071081;28;20036;-71
2022/08/07 12:37:19;;;;;;;2.67;0.80;;;21.90;65.00;;;;;;5052710;28;20044;-72
2022/08/07 12:39:49;;;;;;;1.43;0.70;;;21.90;65.20;;;;;;5085722;22;20044;-71
2022/08/07 12:42:20;;;;;;;1.05;0.60;;;21.80;65.50;;;;;;5070730;28;20285;-72
2022/08/07 12:44:49;;;;;;;2.63;0.80;;;21.80;67.10;;;;;;5070738;28;20036;-71
2022/08/07 12:47:17;;;;;;;;;;;21.80;65.60;;;;;;5071112;28;20112;-71
2022/08/07 12:50:06;;;;;;;3.28;0.75;;;21.90;65.90;;;;;;5070615;28;19914;-72
2022/08/07 12:52:44;;;;;;;1.50;0.70;;;22.00;64.80;;;;;;5071121;28;20078;-72
2022/08/07 12:55:23;;;;;;;3.35;0.98;;;21.90;64.70;;;;;;5070762;28;20071;-72
2022/08/07 12:57:50;;;;;;;;;;;22.00;65.50;;;;;;5070891;28;20056;-71
2022/08/07 13:00:16;;;;;;;2.55;0.70;;;22.00;65.10;;;;;;5070426;28;19909;-72
2022/08/07 13:03:01;;;;;;;3.15;0.70;;;22.10;65.10;;;;;;5052433;28;20103;-72
2022/08/07 13:05:48;;;;;;;2.50;0.90;;;22.20;65.20;;;;;;5070833;28;20031;-72
2022/08/07 13:08:23;;;;;;;3.13;0.95;;;22.30;64.50;;;;;;5070403;28;20029;-71
2022/08/07 13:11:08;;;;;;;1.13;0.50;;;22.40;64.10;;;;;;5070221;28;20111;-72
2022/08/07 13:13:52;;;;;;;3.50;1.02;;;22.40;64.50;;;;;;5070397;28;20540;-71
2022/08/07 13:16:33;;;;;;;2.20;0.60;;;22.50;64.10;;;;;;5074682;28;20067;-71
2022/08/07 13:19:07;;;;;;;1.35;0.82;;;22.50;64.00;;;;;;5074210;28;20043;-71
2022/08/07 13:21:43;;;;;;;1.42;0.63;;;22.50;64.40;;;;;;5056191;28;20024;-71
2022/08/07 13:24:26;;;;;;;2.40;1.00;;;22.40;63.80;;;;;;5074050;28;20029;-71
2022/08/07 13:27:18;;;;;;;1.45;0.68;;;22.40;63.90;;;;;;5073800;28;20388;-71
2022/08/07 13:30:08;;;;;;;1.40;0.80;;;22.40;63.00;;;;;;5064409;28;20044;-71
2022/08/07 13:32:52;;;;;;;1.67;0.60;;;22.50;62.30;;;;;;5056013;28;20401;-72